Time;durP1;ratioP1;P1;durP2;ratioP2;P2;SDS_P1;SDS_P2;PMS_P1;PMS_P2;Temp;Humidity;BMP_temperature;BMP_pressure;BME280_temperature;BME280_humidity;BME280_pressure;Samples;Min_cycle;Max_cycle;Signal;HPM_P1;HPM_P2
2022/03/06 00:00:49;;;;;;;;;;;2.00;99.90;;;;;;4174143;28;19928;-45
2022/03/06 00:02:51;;;;;;;;;;;2.00;99.90;;;;;;4174753;28;20252;-44
2022/03/06 00:04:54;;;;;;;;;;;2.00;99.90;;;;;;4174096;28;19975;-45
2022/03/06 00:06:57;;;;;;;;;;;2.10;99.90;;;;;;4184298;28;19951;-45
2022/03/06 00:11:26;;;;;;;;;;;1.90;99.90;;;;;;4172293;28;19956;-44
2022/03/06 00:13:28;;;;;;;;;;;1.90;99.90;;;;;;4173307;28;20298;-47
2022/03/06 00:15:30;;;;;;;;;;;1.80;99.90;;;;;;4163568;28;19940;-44
2022/03/06 00:17:32;;;;;;;;;;;1.80;99.90;;;;;;4175738;28;19929;-45
2022/03/06 00:19:34;;;;;;;;;;;1.80;99.90;;;;;;4173831;28;19924;-46
2022/03/06 00:21:37;;;;;;;;;;;1.80;99.90;;;;;;4173697;28;19925;-46
2022/03/06 00:23:39;;;;;;;;;;;1.80;99.90;;;;;;4173610;28;20612;-47
2022/03/06 00:25:41;;;;;;;;;;;1.70;99.90;;;;;;4170975;28;19929;-44
2022/03/06 00:27:43;;;;;;;;;;;1.80;99.90;;;;;;4174168;28;19928;-44
2022/03/06 00:29:45;;;;;;;;;;;1.90;99.90;;;;;;4170862;28;19995;-44
2022/03/06 00:31:47;;;;;;;;;;;1.90;99.90;;;;;;4174778;28;20374;-44
2022/03/06 00:33:52;;;;;;;;;;;1.90;99.90;;;;;;4160098;28;19948;-44
2022/03/06 00:35:54;;;;;;;;;;;1.90;99.90;;;;;;4171896;28;19925;-46
2022/03/06 00:37:56;;;;;;;;;;;1.80;99.90;;;;;;4171397;28;19925;-44
2022/03/06 00:39:58;;;;;;;;;;;1.80;99.90;;;;;;4164088;28;19924;-44
2022/03/06 00:42:00;;;;;;;;;;;1.70;99.90;;;;;;4169599;28;19967;-45
2022/03/06 00:44:06;;;;;;;;;;;1.70;99.90;;;;;;4176602;28;20522;-45
2022/03/06 00:46:08;;;;;;;;;;;1.70;99.90;;;;;;4179339;28;19928;-46
2022/03/06 00:48:10;;;;;;;;;;;1.80;99.90;;;;;;4176594;28;19932;-45
2022/03/06 00:50:12;;;;;;;;;;;1.80;99.90;;;;;;4178124;28;19928;-44
2022/03/06 00:52:14;;;;;;;;;;;1.90;99.90;;;;;;4179211;28;19951;-46
2022/03/06 00:54:16;;;;;;;;;;;1.80;99.90;;;;;;4172528;28;19929;-44
2022/03/06 00:56:18;;;;;;;;;;;1.80;99.90;;;;;;4168388;28;19975;-45
2022/03/06 00:58:20;;;;;;;;;;;1.90;99.90;;;;;;4168016;28;19968;-44
2022/03/06 01:00:22;;;;;;;;;;;1.80;99.90;;;;;;4176987;28;20119;-44
2022/03/06 01:02:24;;;;;;;;;;;1.80;99.90;;;;;;4171044;28;19925;-44
2022/03/06 01:04:26;;;;;;;;;;;1.80;99.90;;;;;;4169868;28;20349;-45
2022/03/06 01:06:28;;;;;;;;;;;1.80;99.90;;;;;;4178576;28;19978;-45
2022/03/06 01:08:30;;;;;;;;;;;1.90;99.90;;;;;;4177330;28;20381;-44
2022/03/06 01:10:32;;;;;;;;;;;1.80;99.90;;;;;;4169663;28;19929;-43
2022/03/06 01:12:34;;;;;;;;;;;1.80;99.90;;;;;;4172897;28;19925;-46
2022/03/06 01:14:36;;;;;;;;;;;1.70;99.90;;;;;;4165387;28;19929;-45
2022/03/06 01:16:38;;;;;;;;;;;1.60;99.90;;;;;;4175933;28;19925;-45
2022/03/06 01:18:40;;;;;;;;;;;1.60;99.90;;;;;;4177461;28;19933;-45
2022/03/06 01:20:42;;;;;;;;;;;1.60;99.90;;;;;;4172349;28;19936;-45
2022/03/06 01:22:44;;;;;;;;;;;1.70;99.90;;;;;;4178063;28;19928;-44
2022/03/06 01:24:46;;;;;;;;;;;1.70;99.90;;;;;;4178957;28;20149;-47
2022/03/06 01:26:48;;;;;;;;;;;1.60;99.90;;;;;;4176303;28;19929;-43
2022/03/06 01:28:50;;;;;;;;;;;1.60;99.90;;;;;;4177050;28;20494;-45
2022/03/06 01:30:51;;;;;;;;;;;1.60;99.90;;;;;;4177698;28;19929;-44
2022/03/06 01:32:53;;;;;;;;;;;1.60;99.90;;;;;;4169712;28;19987;-45
2022/03/06 01:34:55;;;;;;;;;;;1.60;99.90;;;;;;4165594;28;19925;-43
2022/03/06 01:36:57;;;;;;;;;;;1.50;99.90;;;;;;4189692;28;20664;-45
2022/03/06 01:38:59;;;;;;;;;;;1.40;99.90;;;;;;4175300;28;19929;-45
2022/03/06 01:41:02;;;;;;;;;;;1.40;99.90;;;;;;4177651;28;20005;-43
2022/03/06 01:43:04;;;;;;;;;;;1.40;99.90;;;;;;4175791;28;19948;-44
2022/03/06 01:45:08;;;;;;;;;;;1.50;99.90;;;;;;4173871;28;19960;-45
2022/03/06 01:47:10;;;;;;;;;;;1.50;99.90;;;;;;4163797;28;19940;-44
2022/03/06 01:49:12;;;;;;;;;;;1.60;99.90;;;;;;4166485;28;19936;-44
2022/03/06 01:51:14;;;;;;;;;;;1.60;99.90;;;;;;4173440;28;20373;-45
2022/03/06 01:53:16;;;;;;;;;;;1.60;99.90;;;;;;4169266;28;19986;-46
2022/03/06 01:55:19;;;;;;;;;;;1.50;99.90;;;;;;4172000;28;19928;-44
2022/03/06 01:57:20;;;;;;;;;;;1.50;99.90;;;;;;4177798;28;20417;-46
2022/03/06 01:59:23;;;;;;;;;;;1.50;99.90;;;;;;4174407;28;19929;-44
2022/03/06 02:01:25;;;;;;;;;;;1.50;99.90;;;;;;4176008;28;20317;-45
2022/03/06 02:03:27;;;;;;;;;;;1.50;99.90;;;;;;4176815;28;19946;-44
2022/03/06 02:05:29;;;;;;;;;;;1.50;99.90;;;;;;4178694;28;19959;-46
2022/03/06 02:07:31;;;;;;;;;;;1.50;99.90;;;;;;4172377;28;19978;-46
2022/03/06 02:09:33;;;;;;;;;;;1.50;99.90;;;;;;4164833;28;20352;-45
2022/03/06 02:11:35;;;;;;;;;;;1.60;99.90;;;;;;4170004;28;19973;-45
2022/03/06 02:13:37;;;;;;;;;;;1.60;99.90;;;;;;4176300;28;20369;-44
2022/03/06 02:15:39;;;;;;;;;;;1.60;99.90;;;;;;4174283;28;20020;-45
2022/03/06 02:17:41;;;;;;;;;;;1.60;99.90;;;;;;4167982;28;20316;-45
2022/03/06 02:19:52;;;;;;;;;;;1.60;99.90;;;;;;4175548;28;20417;-44
2022/03/06 02:21:54;;;;;;;;;;;1.70;99.90;;;;;;4163450;28;19929;-45
2022/03/06 02:23:56;;;;;;;;;;;1.60;99.90;;;;;;4167419;28;19932;-43
2022/03/06 02:25:58;;;;;;;;;;;1.60;99.90;;;;;;4171322;28;19951;-44
2022/03/06 02:28:01;;;;;;;;;;;1.60;99.90;;;;;;4166984;28;19925;-45
2022/03/06 02:30:06;;;;;;;;;;;1.60;99.90;;;;;;4172359;28;19961;-46
2022/03/06 02:32:09;;;;;;;;;;;1.60;99.90;;;;;;4176473;28;19967;-43
2022/03/06 02:34:11;;;;;;;;;;;1.50;99.90;;;;;;4168434;28;19929;-44
2022/03/06 02:36:13;;;;;;;;;;;1.50;99.90;;;;;;4166749;28;20055;-44
2022/03/06 02:38:15;;;;;;;;;;;1.50;99.90;;;;;;4177647;28;19955;-45
2022/03/06 02:40:18;;;;;;;;;;;1.50;99.90;;;;;;4165609;28;20155;-45
2022/03/06 02:42:23;;;;;;;;;;;1.50;99.90;;;;;;4169190;28;19935;-44
2022/03/06 02:44:25;;;;;;;;;;;1.40;99.90;;;;;;4170026;28;19928;-43
2022/03/06 02:46:27;;;;;;;;;;;1.40;99.90;;;;;;4168795;28;20440;-43
2022/03/06 02:48:29;;;;;;;;;;;1.40;99.90;;;;;;4176896;28;19936;-46
2022/03/06 02:50:32;;;;;;;;;;;1.40;99.90;;;;;;4176277;28;19928;-45
2022/03/06 02:52:35;;;;;;;;;;;1.40;99.90;;;;;;4175926;28;19936;-44
2022/03/06 02:54:37;;;;;;;;;;;1.50;99.90;;;;;;4176444;28;19983;-44
2022/03/06 02:56:38;;;;;;;;;;;1.50;99.90;;;;;;4162755;28;19929;-44
2022/03/06 02:58:40;;;;;;;;;;;1.50;99.90;;;;;;4166952;28;19929;-43
2022/03/06 03:00:42;;;;;;;;;;;1.60;99.90;;;;;;4168628;28;19929;-43
2022/03/06 03:02:45;;;;;;;;;;;1.60;99.90;;;;;;4166492;28;20213;-45
2022/03/06 03:04:47;;;;;;;;;;;1.60;99.90;;;;;;4174366;28;19925;-45
2022/03/06 03:06:50;;;;;;;;;;;1.50;99.90;;;;;;4172679;28;19936;-45
2022/03/06 03:08:52;;;;;;;;;;;1.50;99.90;;;;;;4174883;28;20310;-45
2022/03/06 03:10:54;;;;;;;;;;;1.40;99.90;;;;;;4175835;28;20145;-44
2022/03/06 03:12:56;;;;;;;;;;;1.40;99.90;;;;;;4176605;28;20077;-44
2022/03/06 03:14:58;;;;;;;;;;;1.40;99.90;;;;;;4166721;28;20001;-46
2022/03/06 03:17:00;;;;;;;;;;;1.50;99.90;;;;;;4167194;28;19924;-45
2022/03/06 03:19:02;;;;;;;;;;;1.50;99.90;;;;;;4173411;28;20023;-45
2022/03/06 03:21:04;;;;;;;;;;;1.50;99.90;;;;;;4170867;28;19979;-44
2022/03/06 03:23:06;;;;;;;;;;;1.50;99.90;;;;;;4173282;28;20437;-45
2022/03/06 03:25:08;;;;;;;;;;;1.60;99.90;;;;;;4171892;28;19925;-43
2022/03/06 03:27:10;;;;;;;;;;;1.60;99.90;;;;;;4174962;28;19925;-45
2022/03/06 03:29:12;;;;;;;;;;;1.50;99.90;;;;;;4177192;28;20522;-44
2022/03/06 03:31:14;;;;;;;;;;;1.40;99.90;;;;;;4174977;28;19948;-43
2022/03/06 03:33:16;;;;;;;;;;;1.50;99.90;;;;;;4175181;28;19925;-45
2022/03/06 03:35:18;;;;;;;;;;;1.50;99.90;;;;;;4190833;28;19933;-44
2022/03/06 03:37:20;;;;;;;;;;;1.50;99.90;;;;;;4192085;28;19964;-46
2022/03/06 03:39:22;;;;;;;;;;;1.50;99.90;;;;;;4175523;28;19952;-46
2022/03/06 03:41:24;;;;;;;;;;;1.50;99.90;;;;;;4169707;28;19929;-46
2022/03/06 03:43:26;;;;;;;;;;;1.40;99.90;;;;;;4173920;28;19979;-44
2022/03/06 03:45:28;;;;;;;;;;;1.50;99.90;;;;;;4176679;28;19978;-44
2022/03/06 03:47:30;;;;;;;;;;;1.50;99.90;;;;;;4173682;28;19947;-44
2022/03/06 03:49:32;;;;;;;;;;;1.40;99.90;;;;;;4167332;28;20667;-44
2022/03/06 03:51:34;;;;;;;;;;;1.40;99.90;;;;;;4162071;28;20377;-43
2022/03/06 03:53:36;;;;;;;;;;;1.40;99.90;;;;;;4165187;28;19925;-44
2022/03/06 03:55:38;;;;;;;;;;;1.40;99.90;;;;;;4171938;28;19952;-44
2022/03/06 03:57:40;;;;;;;;;;;1.50;99.90;;;;;;4168767;28;19925;-43
2022/03/06 03:59:42;;;;;;;;;;;1.50;99.90;;;;;;4171057;28;19936;-44
2022/03/06 04:01:44;;;;;;;;;;;1.50;99.90;;;;;;4176955;28;20006;-43
2022/03/06 04:03:46;;;;;;;;;;;1.50;99.90;;;;;;4174758;28;19925;-44
2022/03/06 04:05:48;;;;;;;;;;;1.50;99.90;;;;;;4174577;28;19925;-44
2022/03/06 04:07:50;;;;;;;;;;;1.40;99.90;;;;;;4174921;28;20290;-46
2022/03/06 04:09:52;;;;;;;;;;;1.40;99.90;;;;;;4162815;28;19975;-45
2022/03/06 04:11:54;;;;;;;;;;;1.30;99.90;;;;;;4170964;28;19983;-43
2022/03/06 04:13:56;;;;;;;;;;;1.30;99.90;;;;;;4169621;28;19928;-45
2022/03/06 04:15:58;;;;;;;;;;;1.20;99.90;;;;;;4171730;28;20401;-44
2022/03/06 04:17:59;;;;;;;;;;;1.20;99.90;;;;;;4180862;28;19998;-45
2022/03/06 04:20:02;;;;;;;;;;;1.20;99.90;;;;;;4180604;28;19930;-44
2022/03/06 04:22:04;;;;;;;;;;;1.30;99.90;;;;;;4179379;28;19929;-43
2022/03/06 04:24:07;;;;;;;;;;;1.30;99.90;;;;;;4179225;28;19924;-45
2022/03/06 04:26:09;;;;;;;;;;;1.40;99.90;;;;;;4165903;28;19929;-47
2022/03/06 04:28:11;;;;;;;;;;;1.60;99.90;;;;;;4173542;28;20373;-44
2022/03/06 04:30:13;;;;;;;;;;;1.60;99.90;;;;;;4175662;28;19929;-44
2022/03/06 04:32:15;;;;;;;;;;;1.70;99.90;;;;;;4170710;28;19933;-45
2022/03/06 04:34:17;;;;;;;;;;;1.70;99.90;;;;;;4166192;28;20412;-44
2022/03/06 04:36:19;;;;;;;;;;;1.60;99.90;;;;;;4176903;28;20463;-46
2022/03/06 04:38:20;;;;;;;;;;;1.70;99.90;;;;;;4178803;28;19939;-44
2022/03/06 04:40:22;;;;;;;;;;;1.80;99.90;;;;;;4180966;28;19925;-45
2022/03/06 04:42:24;;;;;;;;;;;1.80;99.90;;;;;;4180479;28;20148;-44
2022/03/06 04:44:26;;;;;;;;;;;1.90;99.90;;;;;;4177113;28;20397;-45
2022/03/06 04:46:28;;;;;;;;;;;1.90;99.90;;;;;;4180304;28;19925;-45
2022/03/06 04:48:30;;;;;;;;;;;1.90;99.90;;;;;;4170310;28;19925;-44
2022/03/06 04:50:32;;;;;;;;;;;1.90;99.90;;;;;;4181266;28;20229;-45
2022/03/06 04:52:34;;;;;;;;;;;1.90;99.90;;;;;;4180971;28;19975;-44
2022/03/06 04:54:36;;;;;;;;;;;1.90;99.90;;;;;;4178406;28;20136;-44
2022/03/06 04:56:38;;;;;;;;;;;1.90;99.90;;;;;;4179105;28;19932;-43
2022/03/06 04:58:40;;;;;;;;;;;1.90;99.90;;;;;;4181632;28;19924;-47
2022/03/06 05:00:42;;;;;;;;;;;1.90;99.90;;;;;;4168653;28;19982;-46
2022/03/06 05:02:44;;;;;;;;;;;1.90;99.90;;;;;;4170884;28;20594;-44
2022/03/06 05:04:46;;;;;;;;;;;1.90;99.90;;;;;;4179983;28;19986;-43
2022/03/06 05:06:48;;;;;;;;;;;1.90;99.90;;;;;;4173228;28;19991;-46
2022/03/06 05:08:50;;;;;;;;;;;1.90;99.90;;;;;;4176533;28;20329;-45
2022/03/06 05:10:52;;;;;;;;;;;1.90;99.90;;;;;;4175568;28;20063;-45
2022/03/06 05:12:53;;;;;;;;;;;1.90;99.90;;;;;;4159987;28;19929;-45
2022/03/06 05:14:55;;;;;;;;;;;1.90;99.90;;;;;;4179144;28;19956;-45
2022/03/06 05:16:57;;;;;;;;;;;1.90;99.90;;;;;;4181327;28;19932;-44
2022/03/06 05:19:00;;;;;;;;;;;1.80;99.90;;;;;;4173684;28;19994;-44
2022/03/06 05:21:02;;;;;;;;;;;1.90;99.90;;;;;;4177306;28;19940;-43
2022/03/06 05:23:04;;;;;;;;;;;1.80;99.90;;;;;;4170304;28;19933;-44
2022/03/06 05:25:06;;;;;;;;;;;1.90;99.90;;;;;;4175502;28;19932;-44
2022/03/06 05:27:08;;;;;;;;;;;1.80;99.90;;;;;;4177029;28;20297;-43
2022/03/06 05:29:10;;;;;;;;;;;1.80;99.90;;;;;;4175225;28;19925;-44
2022/03/06 05:31:12;;;;;;;;;;;1.80;99.90;;;;;;4177533;28;19925;-45
2022/03/06 05:33:14;;;;;;;;;;;1.80;99.90;;;;;;4177751;28;19929;-46
2022/03/06 05:35:16;;;;;;;;;;;1.80;99.90;;;;;;4169292;28;19929;-46
2022/03/06 05:37:18;;;;;;;;;;;1.80;99.90;;;;;;4165402;28;20340;-44
2022/03/06 05:39:20;;;;;;;;;;;1.80;99.90;;;;;;4163752;28;20369;-44
2022/03/06 05:41:22;;;;;;;;;;;1.80;99.90;;;;;;4173169;28;19929;-45
2022/03/06 05:43:24;;;;;;;;;;;1.70;99.90;;;;;;4174816;28;19929;-45
2022/03/06 05:45:26;;;;;;;;;;;1.70;99.90;;;;;;4171759;28;19933;-43
2022/03/06 05:47:28;;;;;;;;;;;1.70;99.90;;;;;;4177073;28;20361;-45
2022/03/06 05:49:35;;;;;;;;;;;1.60;99.90;;;;;;4162560;28;19929;-45
2022/03/06 05:51:37;;;;;;;;;;;1.60;99.90;;;;;;4177209;28;19929;-43
2022/03/06 05:53:39;;;;;;;;;;;1.60;99.90;;;;;;4175638;28;19924;-44
2022/03/06 05:55:41;;;;;;;;;;;1.60;99.90;;;;;;4176077;28;19933;-45
2022/03/06 05:57:44;;;;;;;;;;;1.70;99.90;;;;;;4169865;28;19971;-44
2022/03/06 05:59:46;;;;;;;;;;;1.60;99.90;;;;;;4165249;28;20640;-44
2022/03/06 06:01:48;;;;;;;;;;;1.60;99.90;;;;;;4170215;28;19925;-45
2022/03/06 06:03:50;;;;;;;;;;;1.60;99.90;;;;;;4174684;28;19965;-46
2022/03/06 06:05:52;;;;;;;;;;;1.60;99.90;;;;;;4193927;28;19925;-44
2022/03/06 06:07:57;;;;;;;;;;;1.60;99.90;;;;;;4169905;28;19929;-43
2022/03/06 06:09:59;;;;;;;;;;;1.70;99.90;;;;;;4174633;28;19929;-44
2022/03/06 06:12:01;;;;;;;;;;;1.70;99.90;;;;;;4174282;28;19961;-43
2022/03/06 06:14:03;;;;;;;;;;;1.80;99.90;;;;;;4173929;28;19948;-45
2022/03/06 06:16:05;;;;;;;;;;;1.80;99.90;;;;;;4174492;28;19939;-45
2022/03/06 06:18:07;;;;;;;;;;;1.70;99.90;;;;;;4175287;28;19932;-44
2022/03/06 06:20:09;;;;;;;;;;;1.80;99.90;;;;;;4175367;28;20007;-46
2022/03/06 06:22:11;;;;;;;;;;;1.90;99.90;;;;;;4178161;28;19929;-43
2022/03/06 06:24:14;;;;;;;;;;;1.80;99.90;;;;;;4164577;28;20507;-44
2022/03/06 06:26:17;;;;;;;;;;;1.90;99.90;;;;;;4170966;28;19936;-43
2022/03/06 06:28:19;;;;;;;;;;;1.90;99.90;;;;;;4175276;28;19925;-43
2022/03/06 06:30:21;;;;;;;;;;;2.00;99.90;;;;;;4163708;28;20245;-45
2022/03/06 06:32:25;;;;;;;;;;;2.00;99.90;;;;;;4169707;28;19932;-44
2022/03/06 06:34:27;;;;;;;;;;;2.00;99.90;;;;;;4170976;28;19982;-43
2022/03/06 06:36:28;;;;;;;;;;;2.00;99.90;;;;;;4169404;28;20320;-44
2022/03/06 06:38:30;;;;;;;;;;;2.00;99.90;;;;;;4175322;28;19932;-45
2022/03/06 06:40:32;;;;;;;;;;;2.00;99.90;;;;;;4175509;28;20020;-43
2022/03/06 06:42:34;;;;;;;;;;;2.00;99.90;;;;;;4168541;28;20277;-43
2022/03/06 06:44:36;;;;;;;;;;;2.00;99.90;;;;;;4170513;28;19929;-45
2022/03/06 06:46:38;;;;;;;;;;;2.00;99.90;;;;;;4178041;28;19928;-44
2022/03/06 06:48:40;;;;;;;;;;;2.00;99.90;;;;;;4175027;28;19929;-44
2022/03/06 06:50:42;;;;;;;;;;;1.90;99.90;;;;;;4168386;28;19925;-44
2022/03/06 06:52:44;;;;;;;;;;;2.00;99.90;;;;;;4172332;28;19960;-45
2022/03/06 06:54:46;;;;;;;;;;;2.00;99.90;;;;;;4166324;28;20360;-45
2022/03/06 06:56:48;;;;;;;;;;;2.00;99.90;;;;;;4176071;28;19928;-43
2022/03/06 06:58:50;;;;;;;;;;;2.10;99.90;;;;;;4174501;28;20233;-44
2022/03/06 07:00:52;;;;;;;;;;;2.10;99.90;;;;;;4171919;28;19983;-45
2022/03/06 07:02:54;;;;;;;;;;;2.10;99.90;;;;;;4162099;28;19939;-44
2022/03/06 07:04:56;;;;;;;;;;;2.20;99.90;;;;;;4165144;28;19929;-44
2022/03/06 07:06:58;;;;;;;;;;;2.20;99.90;;;;;;4163872;28;19929;-44
2022/03/06 07:09:00;;;;;;;;;;;2.30;99.90;;;;;;4167120;28;19932;-46
2022/03/06 07:11:02;;;;;;;;;;;2.20;99.90;;;;;;4169872;28;19929;-44
2022/03/06 07:13:04;;;;;;;;;;;2.20;99.90;;;;;;4175956;28;20373;-45
2022/03/06 07:15:06;;;;;;;;;;;2.30;99.90;;;;;;4173342;28;19932;-45
2022/03/06 07:17:08;;;;;;;;;;;2.30;99.90;;;;;;4175335;28;19925;-45
2022/03/06 07:19:09;;;;;;;;;;;2.30;99.90;;;;;;4174818;28;20421;-44
2022/03/06 07:21:11;;;;;;;;;;;2.30;99.90;;;;;;4161864;28;19929;-45
2022/03/06 07:23:15;;;;;;;;;;;2.30;99.90;;;;;;4167580;28;19925;-44
2022/03/06 07:25:17;;;;;;;;;;;2.30;99.90;;;;;;4166509;28;19936;-44
2022/03/06 07:27:18;;;;;;;;;;;2.40;99.90;;;;;;4166919;28;19932;-44
2022/03/06 07:29:20;;;;;;;;;;;2.40;99.90;;;;;;4170739;28;20027;-45
2022/03/06 07:31:22;;;;;;;;;;;2.40;99.90;;;;;;4172734;28;19928;-44
2022/03/06 07:33:24;;;;;;;;;;;2.50;99.90;;;;;;4172254;28;19952;-45
2022/03/06 07:35:27;;;;;;;;;;;2.60;99.90;;;;;;4176529;28;20393;-45
2022/03/06 07:37:29;;;;;;;;;;;2.60;99.90;;;;;;4172610;28;19979;-47
2022/03/06 07:39:31;;;;;;;;;;;2.70;99.90;;;;;;4173505;28;19952;-46
2022/03/06 07:41:33;;;;;;;;;;;2.70;99.90;;;;;;4173499;28;19932;-46
2022/03/06 07:43:35;;;;;;;;;;;2.90;99.90;;;;;;4173959;28;19951;-48
2022/03/06 07:45:37;;;;;;;;;;;3.10;99.90;;;;;;4169229;28;20036;-48
2022/03/06 07:47:39;;;;;;;;;;;3.40;99.90;;;;;;4170233;28;19952;-47
2022/03/06 07:49:41;;;;;;;;;;;3.50;99.90;;;;;;4168963;28;20349;-45
2022/03/06 07:51:43;;;;;;;;;;;3.50;99.90;;;;;;4175474;28;19975;-45
2022/03/06 07:53:45;;;;;;;;;;;3.50;99.90;;;;;;4176047;28;19986;-46
2022/03/06 07:55:47;;;;;;;;;;;3.60;99.90;;;;;;4175219;28;19929;-46
2022/03/06 07:57:49;;;;;;;;;;;3.70;99.90;;;;;;4174700;28;19956;-48
2022/03/06 07:59:51;;;;;;;;;;;3.60;99.90;;;;;;4161880;28;19925;-45
2022/03/06 08:01:53;;;;;;;;;;;3.70;99.90;;;;;;4167892;28;19929;-47
2022/03/06 08:03:55;;;;;;;;;;;3.80;99.90;;;;;;4173595;28;19948;-48
2022/03/06 08:05:57;;;;;;;;;;;3.70;99.90;;;;;;4167081;28;19932;-47
2022/03/06 08:07:59;;;;;;;;;;;3.70;99.90;;;;;;4175458;28;19925;-46
2022/03/06 08:10:01;;;;;;;;;;;3.60;99.90;;;;;;4176377;28;19982;-44
2022/03/06 08:12:03;;;;;;;;;;;3.90;99.90;;;;;;4174701;28;20373;-47
2022/03/06 08:14:05;;;;;;;;;;;4.10;99.90;;;;;;4171675;28;19932;-46
2022/03/06 08:16:07;;;;;;;;;;;4.10;99.90;;;;;;4161490;28;20786;-49
2022/03/06 08:18:09;;;;;;;;;;;3.90;99.90;;;;;;4169783;28;19982;-46
2022/03/06 08:20:11;;;;;;;;;;;3.90;99.90;;;;;;4173514;28;19951;-48
2022/03/06 08:22:13;;;;;;;;;;;3.80;99.90;;;;;;4163215;28;20397;-48
2022/03/06 08:24:16;;;;;;;;;;;3.80;99.90;;;;;;4165805;28;20385;-48
2022/03/06 08:26:18;;;;;;;;;;;4.00;99.90;;;;;;4175513;28;19925;-48
2022/03/06 08:28:20;;;;;;;;;;;4.20;99.90;;;;;;4165546;28;19929;-48
2022/03/06 08:30:22;;;;;;;;;;;4.20;99.90;;;;;;4166753;28;19975;-46
2022/03/06 08:32:24;;;;;;;;;;;4.10;99.90;;;;;;4175990;28;19931;-47
2022/03/06 08:34:26;;;;;;;;;;;4.30;99.90;;;;;;4175288;28;20485;-45
2022/03/06 08:36:28;;;;;;;;;;;4.20;99.90;;;;;;4170635;28;19933;-49
2022/03/06 08:38:29;;;;;;;;;;;4.00;99.90;;;;;;4166957;28;19924;-47
2022/03/06 08:40:31;;;;;;;;;;;4.00;99.90;;;;;;4167936;28;19971;-46
2022/03/06 08:42:34;;;;;;;;;;;4.20;99.90;;;;;;4175731;28;19928;-48
2022/03/06 08:44:36;;;;;;;;;;;4.40;99.90;;;;;;4172949;28;19924;-47
2022/03/06 08:46:38;;;;;;;;;;;4.30;99.90;;;;;;4174253;28;20481;-48
2022/03/06 08:48:39;;;;;;;;;;;4.30;99.90;;;;;;4174872;28;19975;-48
2022/03/06 08:50:41;;;;;;;;;;;4.40;99.90;;;;;;4170568;28;19928;-45
2022/03/06 08:52:43;;;;;;;;;;;4.30;99.90;;;;;;4168091;28;19933;-44
2022/03/06 08:54:45;;;;;;;;;;;4.40;99.90;;;;;;4166477;28;19983;-48
2022/03/06 08:56:47;;;;;;;;;;;4.30;99.90;;;;;;4164772;28;19979;-47
2022/03/06 08:58:49;;;;;;;;;;;4.50;99.90;;;;;;4175707;28;19928;-48
2022/03/06 09:00:51;;;;;;;;;;;4.60;99.90;;;;;;4174377;28;20278;-47
2022/03/06 09:02:53;;;;;;;;;;;4.60;99.90;;;;;;4175488;28;19975;-45
2022/03/06 09:04:55;;;;;;;;;;;4.50;99.90;;;;;;4176791;28;20399;-48
2022/03/06 09:06:57;;;;;;;;;;;4.30;99.90;;;;;;4164623;28;19929;-47
2022/03/06 09:08:58;;;;;;;;;;;4.30;99.90;;;;;;4177722;28;19978;-48
2022/03/06 09:11:00;;;;;;;;;;;4.20;99.90;;;;;;4177812;28;19925;-45
2022/03/06 09:13:02;;;;;;;;;;;4.20;99.90;;;;;;4177157;28;19929;-47
2022/03/06 09:15:05;;;;;;;;;;;4.20;99.90;;;;;;4173637;28;20394;-46
2022/03/06 09:17:09;;;;;;;;;;;4.00;99.90;;;;;;4176356;28;19936;-48
2022/03/06 09:19:11;;;;;;;;;;;3.90;99.90;;;;;;4176261;28;20407;-46
2022/03/06 09:21:13;;;;;;;;;;;3.90;99.90;;;;;;4177062;28;20439;-45
2022/03/06 09:23:15;;;;;;;;;;;4.00;99.90;;;;;;4179882;28;19925;-48
2022/03/06 09:25:17;;;;;;;;;;;4.00;99.90;;;;;;4176943;28;19928;-47
2022/03/06 09:27:19;;;;;;;;;;;3.90;99.90;;;;;;4177024;28;20393;-47
2022/03/06 09:29:21;;;;;;;;;;;3.80;99.90;;;;;;4176969;28;19936;-45
2022/03/06 09:31:23;;;;;;;;;;;3.90;99.90;;;;;;4171196;28;19925;-46
2022/03/06 09:33:25;;;;;;;;;;;4.00;99.90;;;;;;4177397;28;19931;-48
2022/03/06 09:35:27;;;;;;;;;;;4.20;99.70;;;;;;4170792;28;19982;-46
2022/03/06 09:37:29;;;;;;;;;;;4.30;99.90;;;;;;4176098;28;19932;-49
2022/03/06 09:39:31;;;;;;;;;;;4.10;99.90;;;;;;4179116;28;19924;-45
2022/03/06 09:41:37;;;;;;;;;;;4.10;99.90;;;;;;4174641;28;19928;-47
2022/03/06 09:43:39;;;;;;;;;;;4.30;99.80;;;;;;4176249;28;19982;-49
2022/03/06 09:45:42;;;;;;;;;;;4.20;99.90;;;;;;4177209;28;19925;-48
2022/03/06 09:47:45;;;;;;;;;;;4.30;99.80;;;;;;4177336;28;20400;-47
2022/03/06 09:49:47;;;;;;;;;;;4.30;99.90;;;;;;4175667;28;20454;-47
2022/03/06 09:51:49;;;;;;;;;;;4.10;99.00;;;;;;4176832;28;19929;-46
2022/03/06 09:53:52;;;;;;;;;;;4.10;99.60;;;;;;4174013;28;19924;-48
2022/03/06 09:55:54;;;;;;;;;;;4.20;99.80;;;;;;4178595;28;19932;-45
2022/03/06 09:57:57;;;;;;;;;;;4.20;98.90;;;;;;4177515;28;20003;-45
2022/03/06 09:59:59;;;;;;;;;;;4.30;98.90;;;;;;4176678;28;19948;-46
2022/03/06 10:02:02;;;;;;;;;;;4.30;99.20;;;;;;4176942;28;20301;-46
2022/03/06 10:04:20;;;;;;;;;;;4.40;99.70;;;;;;4164797;28;19925;-49
2022/03/06 10:06:23;;;;;;;;;;;4.40;99.90;;;;;;4168704;28;19929;-47
2022/03/06 10:08:26;;;;;;;;;;;4.50;99.80;;;;;;4174981;28;20121;-47
2022/03/06 10:10:37;;;;;;;;;;;4.60;98.70;;;;;;4170300;28;19972;-49
2022/03/06 10:12:43;;;;;;;;;;;4.80;98.80;;;;;;4175379;28;19925;-48
2022/03/06 10:14:45;;;;;;;;;;;4.70;98.00;;;;;;4177350;28;19986;-46
2022/03/06 10:17:07;;;;;;;;;;;4.50;98.20;;;;;;4176076;28;19929;-47
2022/03/06 10:19:08;;;;;;;;;;;4.40;98.30;;;;;;4166166;28;19976;-45
2022/03/06 10:21:12;;;;;;;;;;;4.30;98.50;;;;;;4169242;28;19925;-47
2022/03/06 10:23:23;;;;;;;;;;;4.30;97.80;;;;;;4165199;28;19931;-46
2022/03/06 10:25:26;;;;;;;;;;;4.30;99.20;;;;;;4167431;28;19929;-47
2022/03/06 10:27:45;;;;;;;;;;;4.30;98.10;;;;;;4175562;28;19967;-45
2022/03/06 10:29:47;;;;;;;;;;;4.20;98.30;;;;;;4174760;28;19925;-47
2022/03/06 10:31:53;;;;;;;;;;;4.20;98.00;;;;;;4175136;28;19999;-44
2022/03/06 10:33:59;;;;;;;;;;;4.10;98.00;;;;;;4176751;28;19995;-46
2022/03/06 10:36:02;;;;;;;;;;;4.10;98.20;;;;;;4177231;28;20336;-46
2022/03/06 10:38:19;;;;;;;;;;;4.10;98.90;;;;;;4168759;28;19979;-48
2022/03/06 10:40:37;;;;;;;;;;;4.00;99.10;;;;;;4168146;28;20347;-46
2022/03/06 10:42:39;;;;;;;;;;;4.00;99.30;;;;;;4173502;28;20019;-47
2022/03/06 10:44:42;;;;;;;;;;;4.00;99.10;;;;;;4171948;28;19939;-48
2022/03/06 10:47:03;;;;;;;;;;;4.10;99.30;;;;;;4176679;28;20016;-46
2022/03/06 10:49:15;;;;;;;;;;;4.10;98.70;;;;;;4165394;28;20208;-47
2022/03/06 10:51:18;;;;;;;;;;;4.10;98.20;;;;;;4173579;28;19979;-45
2022/03/06 10:53:21;;;;;;;;;;;4.10;97.90;;;;;;4162579;28;19963;-46
2022/03/06 10:55:35;;;;;;;;;;;4.10;98.10;;;;;;4163317;28;19979;-46
2022/03/06 10:57:37;;;;;;;;;;;4.20;98.40;;;;;;4168755;28;19987;-46
2022/03/06 10:59:40;;;;;;;;;;;4.10;98.20;;;;;;4161073;28;19929;-48
2022/03/06 11:01:42;;;;;;;;;;;4.10;98.00;;;;;;4166074;28;19936;-46
2022/03/06 11:03:44;;;;;;;;;;;4.10;98.50;;;;;;4175408;28;20459;-47
2022/03/06 11:05:46;;;;;;;;;;;4.20;98.30;;;;;;4166096;28;19925;-46
2022/03/06 11:07:48;;;;;;;;;;;4.30;98.60;;;;;;4168602;28;19935;-45
2022/03/06 11:09:50;;;;;;;;;;;4.80;99.90;;;;;;4167664;28;19971;-43
2022/03/06 11:11:52;;;;;;;;;;;4.60;98.00;;;;;;4169804;28;19968;-47
2022/03/06 11:13:55;;;;;;;;;;;4.60;98.80;;;;;;4163823;28;20906;-44
2022/03/06 11:15:58;;;;;;;;;;;4.70;99.40;;;;;;4167472;28;19929;-46
2022/03/06 11:18:01;;;;;;;;;;;4.70;98.40;;;;;;4171858;28;20385;-45
2022/03/06 11:20:04;;;;;;;;;;;4.70;98.60;;;;;;4166590;28;19979;-44
2022/03/06 11:22:27;;;;;;;;;;;4.70;98.10;;;;;;4161561;28;19925;-45
2022/03/06 11:24:29;;;;;;;;;;;4.80;97.20;;;;;;4169453;28;19929;-43
2022/03/06 11:26:54;;;;;;;;;;;4.70;97.30;;;;;;4171150;28;20024;-44
2022/03/06 11:29:08;;;;;;;;;;;5.00;97.10;;;;;;4167064;28;21784;-46
2022/03/06 11:31:10;;;;;;;;;;;5.00;97.00;;;;;;4161154;28;19951;-45
2022/03/06 11:33:13;;;;;;;;;;;5.10;98.20;;;;;;4163778;28;20383;-46
2022/03/06 11:35:17;;;;;;;;;;;5.00;96.20;;;;;;4162139;28;19925;-43
2022/03/06 11:37:19;;;;;;;;;;;4.80;96.50;;;;;;4163320;28;20395;-44
2022/03/06 11:39:44;;;;;;;;;;;4.70;97.20;;;;;;4156840;28;19933;-44
2022/03/06 11:41:46;;;;;;;;;;;4.80;97.00;;;;;;4159464;28;20325;-46
2022/03/06 11:43:49;;;;;;;;;;;4.60;97.00;;;;;;4159462;28;20431;-44
2022/03/06 11:45:52;;;;;;;;;;;4.60;97.30;;;;;;4175114;28;20240;-44
2022/03/06 11:47:54;;;;;;;;;;;4.70;97.60;;;;;;4167277;28;20054;-44
2022/03/06 11:49:59;;;;;;;;;;;4.60;98.50;;;;;;4167649;28;19925;-46
2022/03/06 11:52:01;;;;;;;;;;;4.40;97.70;;;;;;4158580;28;19928;-43
2022/03/06 11:54:03;;;;;;;;;;;4.40;98.40;;;;;;4167461;28;19967;-45
2022/03/06 11:56:25;;;;;;;;;;;4.40;97.70;;;;;;4165261;28;19933;-43
2022/03/06 11:58:49;;;;;;;;;;;4.50;97.00;;;;;;4164940;28;19963;-45
2022/03/06 12:00:52;;;;;;;;;;;4.60;97.10;;;;;;4165222;28;19960;-44
2022/03/06 12:02:55;;;;;;;;;;;4.80;97.30;;;;;;4167777;28;20044;-45
2022/03/06 12:04:57;;;;;;;;;;;4.90;95.70;;;;;;4162703;28;19929;-44
2022/03/06 12:06:59;;;;;;;;;;;4.90;95.80;;;;;;4162722;28;19928;-44
2022/03/06 12:09:09;;;;;;;;;;;4.90;94.90;;;;;;4166282;28;19955;-44